createdAt,value
2023-04-02T00:00:47.304Z,6.68
2023-04-02T00:01:47.338Z,6.68
2023-04-02T00:02:47.324Z,6.69
2023-04-02T00:03:47.332Z,6.65
2023-04-02T00:04:47.287Z,6.65
2023-04-02T00:05:47.243Z,6.65
2023-04-02T00:06:47.254Z,6.60
2023-04-02T00:07:47.218Z,6.57
2023-04-02T00:08:47.233Z,6.57
2023-04-02T00:09:47.241Z,6.55
2023-04-02T00:10:47.227Z,6.55
2023-04-02T00:11:47.229Z,6.57
2023-04-02T00:12:47.189Z,6.50
2023-04-02T00:13:47.149Z,6.50
2023-04-02T00:14:47.165Z,6.48
2023-04-02T00:15:47.153Z,6.43
2023-04-02T00:16:47.267Z,6.40
2023-04-02T00:17:47.122Z,6.39
2023-04-02T00:18:47.124Z,6.39
2023-04-02T00:19:47.084Z,6.35
2023-04-02T00:20:47.096Z,6.36
2023-04-02T00:21:47.110Z,6.30
2023-04-02T00:22:47.082Z,6.32
2023-04-02T00:23:47.049Z,6.28
2023-04-02T00:24:47.056Z,6.27
2023-04-02T00:25:47.026Z,6.24
2023-04-02T00:26:47.070Z,6.20
2023-04-02T00:27:47.042Z,6.19
2023-04-02T00:28:47.020Z,6.21
2023-04-02T00:29:46.980Z,6.20
2023-04-02T00:30:46.999Z,6.17
2023-04-02T00:31:47.075Z,6.17
2023-04-02T00:32:47.014Z,6.16
2023-04-02T00:33:46.933Z,6.16
2023-04-02T00:34:46.962Z,6.17
2023-04-02T00:35:46.955Z,6.17
2023-04-02T00:36:46.938Z,6.16
2023-04-02T00:37:46.919Z,6.13
2023-04-02T00:38:48.274Z,6.13
2023-04-02T00:39:46.885Z,6.16
2023-04-02T00:40:46.889Z,6.13
2023-04-02T00:41:46.957Z,6.05
2023-04-02T00:42:46.873Z,6.05
2023-04-02T00:43:46.903Z,6.08
2023-04-02T00:44:46.844Z,6.08
2023-04-02T00:45:46.857Z,6.13
2023-04-02T00:46:47.294Z,6.14
2023-04-02T00:47:46.870Z,6.13
2023-04-02T00:48:46.807Z,6.11
2023-04-02T00:49:46.797Z,6.08
2023-04-02T00:50:46.790Z,6.10
2023-04-02T00:51:46.755Z,6.06
2023-04-02T00:52:46.766Z,5.99
2023-04-02T00:53:46.753Z,5.96
2023-04-02T00:54:46.748Z,5.88
2023-04-02T00:55:46.710Z,5.85
2023-04-02T00:56:46.730Z,5.84
2023-04-02T00:57:46.756Z,5.84
2023-04-02T00:58:46.734Z,5.81
2023-04-02T00:59:46.681Z,5.81
2023-04-02T01:00:46.699Z,5.81
2023-04-02T01:01:46.721Z,5.78
2023-04-02T01:02:46.723Z,5.80
2023-04-02T01:03:46.752Z,5.80
2023-04-02T01:04:46.635Z,5.78
2023-04-02T01:05:46.628Z,5.81
2023-04-02T01:06:46.625Z,5.78
2023-04-02T01:07:46.587Z,5.75
2023-04-02T01:08:46.597Z,5.73
2023-04-02T01:09:46.587Z,5.70
2023-04-02T01:10:46.570Z,5.69
2023-04-02T01:11:46.540Z,5.70
2023-04-02T01:12:46.555Z,5.66
2023-04-02T01:13:46.523Z,5.66
2023-04-02T01:14:46.572Z,5.66
2023-04-02T01:15:46.570Z,5.63
2023-04-02T01:16:46.512Z,5.59
2023-04-02T01:17:46.502Z,5.63
2023-04-02T01:18:46.521Z,5.60
2023-04-02T01:19:46.487Z,5.65
2023-04-02T01:20:46.494Z,5.62
2023-04-02T01:21:46.463Z,5.63
2023-04-02T01:22:46.474Z,5.66
2023-04-02T01:23:46.422Z,5.65
2023-04-02T01:24:46.427Z,5.66
2023-04-02T01:25:46.427Z,5.66
2023-04-02T01:26:46.408Z,5.67
2023-04-02T01:27:46.368Z,5.67
2023-04-02T01:28:46.395Z,5.70
2023-04-02T01:29:46.377Z,5.67
2023-04-02T01:30:46.374Z,5.65
2023-04-02T01:31:46.441Z,5.60
2023-04-02T01:32:46.421Z,5.59
2023-04-02T01:33:46.331Z,5.60
2023-04-02T01:34:46.332Z,5.60
2023-04-02T01:35:46.312Z,5.59
2023-04-02T01:36:46.314Z,5.58
2023-04-02T01:37:46.265Z,5.55
2023-04-02T01:38:46.281Z,5.55
2023-04-02T01:39:46.268Z,5.51
2023-04-02T01:40:46.269Z,5.48
2023-04-02T01:41:46.241Z,5.47
2023-04-02T01:42:46.285Z,5.49
2023-04-02T01:43:46.204Z,5.47
2023-04-02T01:44:46.219Z,5.45
2023-04-02T01:45:46.185Z,5.44
2023-04-02T01:46:46.256Z,5.44
2023-04-02T01:47:46.202Z,5.44
2023-04-02T01:48:46.185Z,5.44
2023-04-02T01:49:46.133Z,5.44
2023-04-02T01:50:46.168Z,5.41
2023-04-02T01:51:46.124Z,5.40
2023-04-02T01:52:46.151Z,5.41
2023-04-02T01:53:46.116Z,5.41
2023-04-02T01:54:46.103Z,5.38
2023-04-02T01:55:46.088Z,5.41
2023-04-02T01:56:46.082Z,5.41
2023-04-02T01:57:46.056Z,5.40
2023-04-02T01:58:46.091Z,5.38
2023-04-02T01:59:46.037Z,5.37
2023-04-02T02:00:46.068Z,5.32
2023-04-02T02:01:46.083Z,5.30
2023-04-02T02:02:46.342Z,5.27
2023-04-02T02:03:46.012Z,5.29
2023-04-02T02:04:46.006Z,5.29
2023-04-02T02:05:45.963Z,5.33
2023-04-02T02:06:45.999Z,5.30
2023-04-02T02:07:45.948Z,5.33
2023-04-02T02:08:45.965Z,5.35
2023-04-02T02:09:45.961Z,5.33
2023-04-02T02:10:45.934Z,5.32
2023-04-02T02:11:45.916Z,5.29
2023-04-02T02:12:45.928Z,5.24
2023-04-02T02:13:45.912Z,5.27
2023-04-02T02:14:45.899Z,5.29
2023-04-02T02:15:45.890Z,5.26
2023-04-02T02:16:45.934Z,5.23
2023-04-02T02:17:45.873Z,5.20
2023-04-02T02:18:45.862Z,5.23
2023-04-02T02:19:45.828Z,5.23
2023-04-02T02:20:45.857Z,5.19
2023-04-02T02:21:45.810Z,5.19
2023-04-02T02:22:45.833Z,5.19
2023-04-02T02:23:45.805Z,5.17
2023-04-02T02:24:45.835Z,5.17
2023-04-02T02:25:45.790Z,5.19
2023-04-02T02:26:45.792Z,5.15
2023-04-02T02:27:45.777Z,5.15
2023-04-02T02:28:45.758Z,5.19
2023-04-02T02:29:45.760Z,5.17
2023-04-02T02:30:45.746Z,5.12
2023-04-02T02:31:45.719Z,5.15
2023-04-02T02:32:45.811Z,5.08
2023-04-02T02:33:45.709Z,5.08
2023-04-02T02:34:45.698Z,5.09
2023-04-02T02:35:45.684Z,5.08
2023-04-02T02:36:45.688Z,5.09
2023-04-02T02:37:45.645Z,5.06
2023-04-02T02:38:45.660Z,5.05
2023-04-02T02:39:45.637Z,4.99
2023-04-02T02:40:45.652Z,4.96
2023-04-02T02:41:45.626Z,4.96
2023-04-02T02:42:45.611Z,4.94
2023-04-02T02:43:45.585Z,4.97
2023-04-02T02:44:45.594Z,4.99
2023-04-02T02:45:45.572Z,5.01
2023-04-02T02:46:45.858Z,4.97
2023-04-02T02:47:45.669Z,5.02
2023-04-02T02:48:45.551Z,4.99
2023-04-02T02:49:45.523Z,5.02
2023-04-02T02:50:45.540Z,4.97
2023-04-02T02:51:46.053Z,4.96
2023-04-02T02:52:45.518Z,4.99
2023-04-02T02:53:45.475Z,4.97
2023-04-02T02:54:45.496Z,4.96
2023-04-02T02:55:45.452Z,4.88
2023-04-02T02:56:45.485Z,4.87
2023-04-02T02:57:45.468Z,4.90
2023-04-02T02:58:45.440Z,4.87
2023-04-02T02:59:45.462Z,4.88
2023-04-02T03:00:45.435Z,4.84
2023-04-02T03:01:45.461Z,4.84
2023-04-02T03:02:45.509Z,4.80
2023-04-02T03:03:45.576Z,4.79
2023-04-02T03:04:45.445Z,4.77
2023-04-02T03:05:45.348Z,4.79
2023-04-02T03:06:45.357Z,4.77
2023-04-02T03:07:45.321Z,4.75
2023-04-02T03:08:45.381Z,4.72
2023-04-02T03:09:45.320Z,4.71
2023-04-02T03:10:45.319Z,4.71
2023-04-02T03:11:45.290Z,4.69
2023-04-02T03:12:45.316Z,4.71
2023-04-02T03:13:45.288Z,4.71
2023-04-02T03:14:45.308Z,4.71
2023-04-02T03:15:45.251Z,4.69
2023-04-02T03:16:45.264Z,4.67
2023-04-02T03:17:45.284Z,4.68
2023-04-02T03:18:45.240Z,4.62
2023-04-02T03:19:45.213Z,4.62
2023-04-02T03:20:45.225Z,4.65
2023-04-02T03:21:45.183Z,4.69
2023-04-02T03:22:45.215Z,4.68
2023-04-02T03:23:45.211Z,4.71
2023-04-02T03:24:45.182Z,4.68
2023-04-02T03:25:45.145Z,4.65
2023-04-02T03:26:45.164Z,4.67
2023-04-02T03:27:45.143Z,4.67
2023-04-02T03:28:45.176Z,4.69
2023-04-02T03:29:45.100Z,4.69
2023-04-02T03:30:45.131Z,4.69
2023-04-02T03:31:45.112Z,4.71
2023-04-02T03:32:45.122Z,4.67
2023-04-02T03:33:45.064Z,4.65
2023-04-02T03:34:45.100Z,4.67
2023-04-02T03:35:45.051Z,4.67
2023-04-02T03:36:45.054Z,4.67
2023-04-02T03:37:45.023Z,4.62
2023-04-02T03:38:45.039Z,4.57
2023-04-02T03:39:45.008Z,4.59
2023-04-02T03:40:45.039Z,4.53
2023-04-02T03:41:44.996Z,4.53
2023-04-02T03:42:44.997Z,4.51
2023-04-02T03:43:44.964Z,4.51
2023-04-02T03:44:44.969Z,4.54
2023-04-02T03:45:44.989Z,4.59
2023-04-02T03:46:45.021Z,4.62
2023-04-02T03:47:44.984Z,4.65
2023-04-02T03:48:44.940Z,4.64
2023-04-02T03:49:44.928Z,4.61
2023-04-02T03:50:44.911Z,4.59
2023-04-02T03:51:44.878Z,4.57
2023-04-02T03:52:44.899Z,4.59
2023-04-02T03:53:44.860Z,4.59
2023-04-02T03:54:53.916Z,4.57
2023-04-02T03:55:44.879Z,4.57
2023-04-02T03:56:44.857Z,4.59
2023-04-02T03:57:44.807Z,4.59
2023-04-02T03:58:44.836Z,4.53
2023-04-02T03:59:44.820Z,4.49
2023-04-02T04:00:44.807Z,4.47
2023-04-02T04:01:44.838Z,4.50
2023-04-02T04:02:44.795Z,4.53
2023-04-02T04:03:44.796Z,4.51
2023-04-02T04:04:44.745Z,4.51
2023-04-02T04:05:44.755Z,4.56
2023-04-02T04:06:44.742Z,4.54
2023-04-02T04:07:44.745Z,4.56
2023-04-02T04:08:44.702Z,4.50
2023-04-02T04:09:44.720Z,4.46
2023-04-02T04:10:44.696Z,4.43
2023-04-02T04:11:44.714Z,4.39
2023-04-02T04:12:44.682Z,4.42
2023-04-02T04:13:44.687Z,4.38
2023-04-02T04:14:45.341Z,4.39
2023-04-02T04:15:44.643Z,4.39
2023-04-02T04:16:44.711Z,4.39
2023-04-02T04:17:44.681Z,4.36
2023-04-02T04:18:44.593Z,4.31
2023-04-02T04:19:44.611Z,4.31
2023-04-02T04:20:44.576Z,4.26
2023-04-02T04:21:44.583Z,4.24
2023-04-02T04:22:44.578Z,4.21
2023-04-02T04:23:44.599Z,4.18
2023-04-02T04:24:44.549Z,4.16
2023-04-02T04:25:44.583Z,4.16
2023-04-02T04:26:44.524Z,4.16
2023-04-02T04:27:44.552Z,4.18
2023-04-02T04:28:44.496Z,4.13
2023-04-02T04:29:44.505Z,4.14
2023-04-02T04:30:44.469Z,4.16
2023-04-02T04:31:44.492Z,4.18
2023-04-02T04:32:44.484Z,4.16
2023-04-02T04:33:44.485Z,4.13
2023-04-02T04:34:44.428Z,4.11
2023-04-02T04:35:44.464Z,4.10
2023-04-02T04:36:44.451Z,4.06
2023-04-02T04:37:44.377Z,4.02
2023-04-02T04:38:44.385Z,4.00
2023-04-02T04:39:44.396Z,4.06
2023-04-02T04:40:44.396Z,4.04
2023-04-02T04:41:44.352Z,4.04
2023-04-02T04:42:44.290Z,3.98
2023-04-02T04:43:44.303Z,3.99
2023-04-02T04:44:44.297Z,3.99
2023-04-02T04:45:44.308Z,3.93
2023-04-02T04:46:44.252Z,3.90
2023-04-02T04:47:44.394Z,3.89
2023-04-02T04:48:44.283Z,3.88
2023-04-02T04:49:44.306Z,3.86
2023-04-02T04:50:44.238Z,3.84
2023-04-02T04:51:44.221Z,3.81
2023-04-02T04:52:44.187Z,3.82
2023-04-02T04:53:44.199Z,3.88
2023-04-02T04:54:44.189Z,3.88
2023-04-02T04:55:44.206Z,3.84
2023-04-02T04:56:44.148Z,3.82
2023-04-02T04:57:44.158Z,3.84
2023-04-02T04:58:44.126Z,3.82
2023-04-02T04:59:44.142Z,3.84
2023-04-02T05:00:44.211Z,3.81
2023-04-02T05:01:44.160Z,3.80
2023-04-02T05:02:44.141Z,3.74
2023-04-02T05:03:44.102Z,3.77
2023-04-02T05:04:44.098Z,3.75
2023-04-02T05:05:44.072Z,3.78
2023-04-02T05:06:44.084Z,3.80
2023-04-02T05:07:44.063Z,3.80
2023-04-02T05:08:44.032Z,3.72
2023-04-02T05:09:44.052Z,3.70
2023-04-02T05:10:44.023Z,3.70
2023-04-02T05:11:44.016Z,3.72
2023-04-02T05:12:43.981Z,3.75
2023-04-02T05:13:43.999Z,3.74
2023-04-02T05:14:43.962Z,3.74
2023-04-02T05:15:44.012Z,3.64
2023-04-02T05:16:43.978Z,3.64
2023-04-02T05:17:44.010Z,3.70
2023-04-02T05:18:43.916Z,3.68
2023-04-02T05:19:43.934Z,3.70
2023-04-02T05:20:43.897Z,3.62
2023-04-02T05:21:43.921Z,3.54
2023-04-02T05:22:43.917Z,3.52
2023-04-02T05:23:43.898Z,3.50
2023-04-02T05:24:43.877Z,3.53
2023-04-02T05:25:43.874Z,3.46
2023-04-02T05:26:43.844Z,3.50
2023-04-02T05:27:43.858Z,3.45
2023-04-02T05:28:44.369Z,3.41
2023-04-02T05:29:44.337Z,3.37
2023-04-02T05:30:43.802Z,3.41
2023-04-02T05:31:43.880Z,3.42
2023-04-02T05:32:43.916Z,3.45
2023-04-02T05:33:43.794Z,3.46
2023-04-02T05:34:43.754Z,3.45
2023-04-02T05:35:43.800Z,3.45
2023-04-02T05:36:43.736Z,3.49
2023-04-02T05:37:43.771Z,3.50
2023-04-02T05:38:43.731Z,3.41
2023-04-02T05:39:43.726Z,3.39
2023-04-02T05:40:43.741Z,3.34
2023-04-02T05:41:43.770Z,3.34
2023-04-02T05:42:43.673Z,3.39
2023-04-02T05:43:43.684Z,3.37
2023-04-02T05:44:43.675Z,3.33
2023-04-02T05:45:43.670Z,3.37
2023-04-02T05:46:43.682Z,3.30
2023-04-02T05:47:43.681Z,3.23
2023-04-02T05:48:43.619Z,3.25
2023-04-02T05:49:43.620Z,3.23
2023-04-02T05:50:43.631Z,3.22
2023-04-02T05:51:43.609Z,3.22
2023-04-02T05:52:43.569Z,3.16
2023-04-02T05:53:43.581Z,3.16
2023-04-02T05:54:43.557Z,3.17
2023-04-02T05:55:43.605Z,3.19
2023-04-02T05:56:43.531Z,3.10
2023-04-02T05:57:49.689Z,3.10
2023-04-02T05:58:45.506Z,3.08
2023-04-02T05:59:43.526Z,3.05
2023-04-02T06:00:43.626Z,3.02
2023-04-02T06:01:43.532Z,2.99
2023-04-02T06:02:43.544Z,3.05
2023-04-02T06:03:43.606Z,3.05
2023-04-02T06:04:43.444Z,3.02
2023-04-02T06:05:43.452Z,3.07
2023-04-02T06:06:43.460Z,3.08
2023-04-02T06:07:43.442Z,3.05
2023-04-02T06:08:43.415Z,3.08
2023-04-02T06:09:43.418Z,3.10
2023-04-02T06:10:43.376Z,3.08
2023-04-02T06:11:43.414Z,3.02
2023-04-02T06:12:43.382Z,3.04
2023-04-02T06:13:43.386Z,3.02
2023-04-02T06:14:43.339Z,3.02
2023-04-02T06:15:43.699Z,3.02
2023-04-02T06:16:43.364Z,2.99
2023-04-02T06:17:43.403Z,3.01
2023-04-02T06:18:43.288Z,2.99
2023-04-02T06:19:43.304Z,2.97
2023-04-02T06:20:43.279Z,2.99
2023-04-02T06:21:43.282Z,2.98
2023-04-02T06:22:43.266Z,2.98
2023-04-02T06:23:43.292Z,3.02
2023-04-02T06:24:43.234Z,3.04
2023-04-02T06:25:43.241Z,2.99
2023-04-02T06:26:43.208Z,2.99
2023-04-02T06:27:43.227Z,3.01
2023-04-02T06:28:43.257Z,2.97
2023-04-02T06:29:43.210Z,2.99
2023-04-02T06:30:43.193Z,2.98
2023-04-02T06:31:43.180Z,3.02
2023-04-02T06:32:43.200Z,3.02
2023-04-02T06:33:43.157Z,3.07
2023-04-02T06:34:43.151Z,3.07
2023-04-02T06:35:43.156Z,3.04
2023-04-02T06:36:43.111Z,3.02
2023-04-02T06:37:43.124Z,3.02
2023-04-02T06:38:43.134Z,3.02
2023-04-02T06:39:43.135Z,3.02
2023-04-02T06:40:43.068Z,3.04
2023-04-02T06:41:43.075Z,3.04
2023-04-02T06:42:43.044Z,3.04
2023-04-02T06:43:43.076Z,3.02
2023-04-02T06:44:43.073Z,3.02
2023-04-02T06:45:43.085Z,2.99
2023-04-02T06:46:43.030Z,3.02
2023-04-02T06:47:43.057Z,3.01
2023-04-02T06:48:42.984Z,3.01
2023-04-02T06:49:43.027Z,2.99
2023-04-02T06:50:42.962Z,3.01
2023-04-02T06:51:42.974Z,3.04
2023-04-02T06:52:42.943Z,3.08
2023-04-02T06:53:42.968Z,3.12
2023-04-02T06:54:43.064Z,3.07
2023-04-02T06:55:42.931Z,3.12
2023-04-02T06:56:42.904Z,3.08
2023-04-02T06:57:43.059Z,3.04
2023-04-02T06:58:42.876Z,3.04
2023-04-02T06:59:42.894Z,3.05
2023-04-02T07:00:42.876Z,3.13
2023-04-02T07:01:42.926Z,3.15
2023-04-02T07:02:42.933Z,3.16
2023-04-02T07:03:42.852Z,3.15
2023-04-02T07:04:42.859Z,3.12
2023-04-02T07:05:43.170Z,3.12
2023-04-02T07:06:42.803Z,3.15
2023-04-02T07:07:42.812Z,3.17
2023-04-02T07:08:42.781Z,3.15
2023-04-02T07:09:42.789Z,3.13
2023-04-02T07:10:42.750Z,3.13
2023-04-02T07:11:42.788Z,3.16
2023-04-02T07:12:42.737Z,3.17
2023-04-02T07:13:42.749Z,3.19
2023-04-02T07:14:42.720Z,3.17
2023-04-02T07:15:42.742Z,3.16
2023-04-02T07:16:42.714Z,3.13
2023-04-02T07:17:42.764Z,3.12
2023-04-02T07:18:42.667Z,3.12
2023-04-02T07:19:42.677Z,3.08
2023-04-02T07:20:42.655Z,3.12
2023-04-02T07:21:42.682Z,3.07
2023-04-02T07:22:42.645Z,3.07
2023-04-02T07:23:42.655Z,3.05
2023-04-02T07:24:42.650Z,3.05
2023-04-02T07:25:42.665Z,3.02
2023-04-02T07:26:42.592Z,3.05
2023-04-02T07:27:42.596Z,3.07
2023-04-02T07:28:42.566Z,3.08
2023-04-02T07:29:42.619Z,3.07
2023-04-02T07:30:42.549Z,3.07
2023-04-02T07:31:42.644Z,3.08
2023-04-02T07:32:42.564Z,3.01
2023-04-02T07:33:42.536Z,2.98
2023-04-02T07:34:42.499Z,2.99
2023-04-02T07:35:42.538Z,3.02
2023-04-02T07:36:42.474Z,3.07
2023-04-02T07:37:42.529Z,2.99
2023-04-02T07:38:42.577Z,3.01
2023-04-02T07:39:42.502Z,3.01
2023-04-02T07:40:42.435Z,2.98
2023-04-02T07:41:42.452Z,2.97
2023-04-02T07:42:42.423Z,2.99
2023-04-02T07:43:42.436Z,2.95
2023-04-02T07:44:42.436Z,2.98
2023-04-02T07:45:42.431Z,3.01
2023-04-02T07:46:42.441Z,3.02
2023-04-02T07:47:42.428Z,3.02
2023-04-02T07:48:42.350Z,3.01
2023-04-02T07:49:42.406Z,3.02
2023-04-02T07:50:42.372Z,3.02
2023-04-02T07:51:42.343Z,2.98
2023-04-02T07:52:42.321Z,2.98
2023-04-02T07:53:42.333Z,3.04
2023-04-02T07:54:42.306Z,3.02
2023-04-02T07:55:42.298Z,2.99
2023-04-02T07:56:42.308Z,2.97
2023-04-02T07:57:44.295Z,2.95
2023-04-02T07:58:42.269Z,2.98
2023-04-02T07:59:42.260Z,3.02
2023-04-02T08:00:42.962Z,3.02
2023-04-02T08:01:42.262Z,2.99
2023-04-02T08:02:42.226Z,2.97
2023-04-02T08:03:42.276Z,2.98
2023-04-02T08:04:42.219Z,3.05
2023-04-02T08:05:42.201Z,3.10
2023-04-02T08:06:42.172Z,3.10
2023-04-02T08:07:42.178Z,3.04
2023-04-02T08:08:42.144Z,3.02
2023-04-02T08:09:42.197Z,3.05
2023-04-02T08:10:42.137Z,3.12
2023-04-02T08:11:42.183Z,3.16
2023-04-02T08:12:42.105Z,3.22
2023-04-02T08:13:42.124Z,3.22
2023-04-02T08:14:42.094Z,3.25
2023-04-02T08:15:42.108Z,3.25
2023-04-02T08:16:42.163Z,3.25
2023-04-02T08:17:42.125Z,3.25
2023-04-02T08:18:42.067Z,3.25
2023-04-02T08:19:54.249Z,3.31
2023-04-02T08:20:42.085Z,3.28
2023-04-02T08:21:42.057Z,3.28
2023-04-02T08:22:42.036Z,3.31
2023-04-02T08:23:42.000Z,3.33
2023-04-02T08:24:42.016Z,3.26
2023-04-02T08:25:42.020Z,3.22
2023-04-02T08:26:43.982Z,3.15
2023-04-02T08:27:42.002Z,3.20
2023-04-02T08:28:41.967Z,3.22
2023-04-02T08:29:41.939Z,3.20
2023-04-02T08:30:41.987Z,3.23
2023-04-02T08:31:41.921Z,3.23
2023-04-02T08:32:42.015Z,3.23
2023-04-02T08:33:41.928Z,3.26
2023-04-02T08:34:41.913Z,3.28
2023-04-02T08:35:41.938Z,3.31
2023-04-02T08:36:41.883Z,3.35
2023-04-02T08:37:41.869Z,3.42
2023-04-02T08:38:41.892Z,3.41
2023-04-02T08:39:41.875Z,3.39
2023-04-02T08:40:41.838Z,3.41
2023-04-02T08:41:41.811Z,3.45
2023-04-02T08:42:41.818Z,3.44
2023-04-02T08:43:41.811Z,3.39
2023-04-02T08:44:41.803Z,3.44
2023-04-02T08:45:42.071Z,3.44
2023-04-02T08:46:41.783Z,3.44
2023-04-02T08:47:41.772Z,3.44
2023-04-02T08:48:42.688Z,3.45
2023-04-02T08:49:41.725Z,3.46
2023-04-02T08:50:41.736Z,3.52
2023-04-02T08:51:41.713Z,3.52
2023-04-02T08:52:41.731Z,3.54
2023-04-02T08:53:41.680Z,3.57
2023-04-02T08:54:41.724Z,3.53
2023-04-02T08:55:41.684Z,3.54
2023-04-02T08:56:41.670Z,3.57
2023-04-02T08:57:41.642Z,3.53
2023-04-02T08:58:41.683Z,3.52
2023-04-02T08:59:41.644Z,3.54
2023-04-02T09:00:41.627Z,3.53
2023-04-02T09:01:41.683Z,3.52
2023-04-02T09:02:41.643Z,3.53
2023-04-02T09:03:41.578Z,3.54
2023-04-02T09:04:41.678Z,3.50
2023-04-02T09:05:41.583Z,3.50
2023-04-02T09:06:41.573Z,3.45
2023-04-02T09:07:41.534Z,3.50
2023-04-02T09:08:41.553Z,3.53
2023-04-02T09:09:41.557Z,3.57
2023-04-02T09:10:41.537Z,3.56
2023-04-02T09:11:41.495Z,3.54
2023-04-02T09:12:42.309Z,3.59
2023-04-02T09:13:41.477Z,3.57
2023-04-02T09:14:41.540Z,3.59
2023-04-02T09:15:41.486Z,3.64
2023-04-02T09:16:41.474Z,3.67
2023-04-02T09:17:52.940Z,3.68
2023-04-02T09:18:41.476Z,3.68
2023-04-02T09:19:41.422Z,3.68
2023-04-02T09:20:41.458Z,3.64
2023-04-02T09:21:41.413Z,3.64
2023-04-02T09:22:41.406Z,3.68
2023-04-02T09:23:41.379Z,3.71
2023-04-02T09:24:41.400Z,3.71
2023-04-02T09:26:41.383Z,3.78
2023-04-02T09:27:41.334Z,3.74
2023-04-02T09:28:41.347Z,3.72
2023-04-02T09:29:41.310Z,3.77
2023-04-02T09:30:41.360Z,3.80
2023-04-02T09:31:41.324Z,3.81
2023-04-02T09:32:41.370Z,3.78
2023-04-02T09:33:41.264Z,3.75
2023-04-02T09:34:41.283Z,3.74
2023-04-02T09:35:41.474Z,3.75
2023-04-02T09:36:41.301Z,3.75
2023-04-02T09:37:41.229Z,3.71
2023-04-02T09:38:41.258Z,3.75
2023-04-02T09:39:41.217Z,3.77
2023-04-02T09:40:41.218Z,3.80
2023-04-02T09:41:41.211Z,3.80
2023-04-02T09:42:41.207Z,3.84
2023-04-02T09:43:41.176Z,3.84
2023-04-02T09:44:41.175Z,3.88
2023-04-02T09:45:41.144Z,3.84
2023-04-02T09:46:41.179Z,3.86
2023-04-02T09:47:42.488Z,3.84
2023-04-02T09:48:41.150Z,3.86
2023-04-02T09:49:41.098Z,3.89
2023-04-02T09:50:41.132Z,3.92
2023-04-02T09:51:41.104Z,3.92
2023-04-02T09:52:41.103Z,3.86
2023-04-02T09:53:42.569Z,3.86
2023-04-02T09:54:41.080Z,3.95
2023-04-02T09:55:41.045Z,3.98
2023-04-02T09:56:41.079Z,3.96
2023-04-02T09:57:41.048Z,3.99
2023-04-02T09:58:41.059Z,4.02
2023-04-02T09:59:41.001Z,4.07
2023-04-02T10:00:42.188Z,4.14
2023-04-02T10:01:41.002Z,4.13
2023-04-02T10:02:41.038Z,4.08
2023-04-02T10:03:40.965Z,4.00
2023-04-02T10:04:41.047Z,4.06
2023-04-02T10:05:41.786Z,4.04
2023-04-02T10:06:40.949Z,4.08
2023-04-02T10:07:40.908Z,4.10
2023-04-02T10:08:40.952Z,4.07
2023-04-02T10:09:40.930Z,4.07
2023-04-02T10:10:40.912Z,4.06
2023-04-02T10:11:46.584Z,4.10
2023-04-02T10:12:40.963Z,4.11
2023-04-02T10:13:40.853Z,4.14
2023-04-02T10:14:40.864Z,4.17
2023-04-02T10:15:40.832Z,4.21
2023-04-02T10:16:40.896Z,4.25
2023-04-02T10:17:40.854Z,4.31
2023-04-02T10:18:40.849Z,4.32
2023-04-02T10:19:40.789Z,4.29
2023-04-02T10:20:50.616Z,4.13
2023-04-02T10:21:40.771Z,4.08
2023-04-02T10:22:40.946Z,4.00
2023-04-02T10:23:40.746Z,4.10
2023-04-02T10:24:40.777Z,4.18
2023-04-02T10:25:40.791Z,4.25
2023-04-02T10:26:40.741Z,4.36
2023-04-02T10:27:40.710Z,4.46
2023-04-02T10:28:40.716Z,4.39
2023-04-02T10:29:40.693Z,4.42
2023-04-02T10:30:40.756Z,4.46
2023-04-02T10:31:40.669Z,4.54
2023-04-02T10:32:40.753Z,4.59
2023-04-02T10:33:40.653Z,4.59
2023-04-02T10:34:42.862Z,4.51
2023-04-02T10:35:40.668Z,4.43
2023-04-02T10:36:40.647Z,4.38
2023-04-02T10:37:40.599Z,4.32
2023-04-02T10:38:40.621Z,4.34
2023-04-02T10:39:40.594Z,4.39
2023-04-02T10:40:40.631Z,4.46
2023-04-02T10:41:40.565Z,4.43
2023-04-02T10:42:40.581Z,4.46
2023-04-02T10:43:40.546Z,4.42
2023-04-02T10:44:40.564Z,4.32
2023-04-02T10:45:40.552Z,4.32
2023-04-02T10:46:40.612Z,4.32
2023-04-02T10:47:40.554Z,4.31
2023-04-02T10:48:40.547Z,4.32
2023-04-02T10:49:40.515Z,4.31
2023-04-02T10:50:40.497Z,4.28
2023-04-02T10:51:40.490Z,4.29
2023-04-02T10:52:40.503Z,4.28
2023-04-02T10:53:40.437Z,4.29
2023-04-02T10:54:40.454Z,4.24
2023-04-02T10:55:40.451Z,4.18
2023-04-02T10:56:49.981Z,4.16
2023-04-02T10:57:40.533Z,4.16
2023-04-02T10:58:40.420Z,4.13
2023-04-02T10:59:40.416Z,4.14
2023-04-02T11:00:40.395Z,4.13
2023-04-02T11:01:40.409Z,4.18
2023-04-02T11:02:40.599Z,4.21
2023-04-02T11:03:40.654Z,4.26
2023-04-02T11:04:40.352Z,4.29
2023-04-02T11:05:40.334Z,4.36
2023-04-02T11:06:40.338Z,4.39
2023-04-02T11:07:40.297Z,4.43
2023-04-02T11:08:40.362Z,4.39
2023-04-02T11:09:40.274Z,4.38
2023-04-02T11:10:40.299Z,4.39
2023-04-02T11:11:40.251Z,4.42
2023-04-02T11:12:42.066Z,4.34
2023-04-02T11:13:40.253Z,4.32
2023-04-02T11:14:40.260Z,4.39
2023-04-02T11:15:40.254Z,4.42
2023-04-02T11:16:44.070Z,4.29
2023-04-02T11:17:40.209Z,4.18
2023-04-02T11:18:40.241Z,4.20
2023-04-02T11:19:40.169Z,4.26
2023-04-02T11:20:40.225Z,4.31
2023-04-02T11:21:51.071Z,4.38
2023-04-02T11:22:40.167Z,4.43
2023-04-02T11:23:40.163Z,4.46
2023-04-02T11:24:40.133Z,4.46
2023-04-02T11:25:40.116Z,4.46
2023-04-02T11:26:40.140Z,4.49
2023-04-02T11:27:40.106Z,4.49
2023-04-02T11:28:40.101Z,4.42
2023-04-02T11:29:40.088Z,4.36
2023-04-02T11:30:40.108Z,4.35
2023-04-02T11:31:40.103Z,4.34
2023-04-02T11:32:40.106Z,4.42
2023-04-02T11:33:43.093Z,4.51
2023-04-02T11:34:40.060Z,4.53
2023-04-02T11:35:40.266Z,4.46
2023-04-02T11:36:40.015Z,4.46
2023-04-02T11:37:39.998Z,4.47
2023-04-02T11:38:40.011Z,4.51
2023-04-02T11:39:39.987Z,4.54
2023-04-02T11:40:39.979Z,4.57
2023-04-02T11:41:39.949Z,4.56
2023-04-02T11:42:39.985Z,4.54
2023-04-02T11:43:39.921Z,4.59
2023-04-02T11:44:39.947Z,4.53
2023-04-02T11:45:51.895Z,4.49
2023-04-02T11:46:39.956Z,4.51
2023-04-02T11:47:39.908Z,4.49
2023-04-02T11:48:39.921Z,4.47
2023-04-02T11:49:40.040Z,4.47
2023-04-02T11:50:39.876Z,4.50
2023-04-02T11:51:39.838Z,4.59
2023-04-02T11:52:39.872Z,4.57
2023-04-02T11:53:39.850Z,4.65
2023-04-02T11:54:39.831Z,4.77
2023-04-02T11:55:39.994Z,4.86
2023-04-02T11:56:39.815Z,4.88
2023-04-02T11:57:39.889Z,4.91
2023-04-02T11:58:39.811Z,4.94
2023-04-02T11:59:39.765Z,5.02
2023-04-02T12:00:39.769Z,5.06
2023-04-02T12:01:39.776Z,5.04
2023-04-02T12:02:39.849Z,4.99
2023-04-02T12:03:39.712Z,4.94
2023-04-02T12:04:39.757Z,4.94
2023-04-02T12:05:39.771Z,5.04
2023-04-02T12:06:39.718Z,5.12
2023-04-02T12:07:39.673Z,5.06
2023-04-02T12:08:47.460Z,5.11
2023-04-02T12:09:39.684Z,5.19
2023-04-02T12:10:39.663Z,5.32
2023-04-02T12:11:39.626Z,5.41
2023-04-02T12:12:39.659Z,5.51
2023-04-02T12:13:39.641Z,5.62
2023-04-02T12:14:39.625Z,5.69
2023-04-02T12:15:39.584Z,5.62
2023-04-02T12:16:39.633Z,5.67
2023-04-02T12:17:39.586Z,5.78
2023-04-02T12:18:39.586Z,5.87
2023-04-02T12:19:39.571Z,5.99
2023-04-02T12:20:39.569Z,6.02
2023-04-02T12:21:39.527Z,6.08
2023-04-02T12:22:39.556Z,5.96
2023-04-02T12:23:39.503Z,5.65
2023-04-02T12:24:39.526Z,5.45
2023-04-02T12:25:39.516Z,5.40
2023-04-02T12:26:39.496Z,5.37
2023-04-02T12:27:39.488Z,5.40
2023-04-02T12:28:39.476Z,5.40
2023-04-02T12:29:39.453Z,5.32
2023-04-02T12:30:39.519Z,5.33
2023-04-02T12:31:39.442Z,5.32
2023-04-02T12:32:39.426Z,5.32
2023-04-02T12:33:39.434Z,5.37
2023-04-02T12:34:39.386Z,5.47
2023-04-02T12:35:39.458Z,5.58
2023-04-02T12:36:39.396Z,5.58
2023-04-02T12:37:39.391Z,5.48
2023-04-02T12:38:39.356Z,5.48
2023-04-02T12:39:39.358Z,5.47
2023-04-02T12:40:39.335Z,5.52
2023-04-02T12:41:39.369Z,5.62
2023-04-02T12:42:39.302Z,5.52
2023-04-02T12:43:39.323Z,5.56
2023-04-02T12:44:39.282Z,5.63
2023-04-02T12:45:39.314Z,5.78
2023-04-02T12:46:39.395Z,5.84
2023-04-02T12:47:39.315Z,5.74
2023-04-02T12:48:39.241Z,5.69
2023-04-02T12:49:39.270Z,5.70
2023-04-02T12:50:39.234Z,5.80
2023-04-02T12:51:39.257Z,5.81
2023-04-02T12:52:39.230Z,5.85
2023-04-02T12:53:39.219Z,5.99
2023-04-02T12:54:39.199Z,6.10
2023-04-02T12:55:39.198Z,6.02
2023-04-02T12:56:39.164Z,5.93
2023-04-02T12:57:39.251Z,5.90
2023-04-02T12:58:39.168Z,5.85
2023-04-02T12:59:39.187Z,5.90
2023-04-02T13:00:39.331Z,5.83
2023-04-02T13:01:39.193Z,5.83
2023-04-02T13:02:39.161Z,5.73
2023-04-02T13:03:39.177Z,5.77
2023-04-02T13:04:39.082Z,5.83
2023-04-02T13:05:39.096Z,5.92
2023-04-02T13:06:39.059Z,5.96
2023-04-02T13:07:39.083Z,5.96
2023-04-02T13:08:39.039Z,5.73
2023-04-02T13:09:39.096Z,5.74
2023-04-02T13:10:39.048Z,5.83
2023-04-02T13:11:39.030Z,5.83
2023-04-02T13:12:39.028Z,5.74
2023-04-02T13:13:39.005Z,5.74
2023-04-02T13:14:39.012Z,5.77
2023-04-02T13:15:39.021Z,5.74
2023-04-02T13:16:38.990Z,5.65
2023-04-02T13:17:39.022Z,5.65
2023-04-02T13:18:38.939Z,5.66
2023-04-02T13:19:38.989Z,5.74